Time;durP1;ratioP1;P1;durP2;ratioP2;P2;SDS_P1;SDS_P2;PMS_P1;PMS_P2;Temp;Humidity;BMP_temperature;BMP_pressure;BME280_temperature;BME280_humidity;BME280_pressure;Samples;Min_cycle;Max_cycle;Signal;HPM_P1;HPM_P2
2023/03/25 00:02:06;;;;;;;;;;;12.50;69.80;;;;;;5010348;28;92209;-39
2023/03/25 00:04:34;;;;;;;;;;;12.50;69.80;;;;;;5014736;28;92625;-39
2023/03/25 00:07:00;;;;;;;;;;;12.50;69.80;;;;;;5011011;28;92192;-39
2023/03/25 00:09:25;;;;;;;;;;;12.50;69.80;;;;;;5013919;28;94609;-39
2023/03/25 00:11:51;;;;;;;;;;;12.50;69.80;;;;;;5014669;28;95396;-39
2023/03/25 00:14:18;;;;;;;;;;;12.50;69.90;;;;;;4998871;28;92543;-39
2023/03/25 00:16:47;;;;;;;;;;;12.50;69.90;;;;;;4998971;28;94024;-39
2023/03/25 00:19:15;;;;;;;;;;;12.40;69.80;;;;;;5012953;28;94424;-40
2023/03/25 00:21:43;;;;;;;;;;;12.40;69.90;;;;;;5013726;28;92223;-39
2023/03/25 00:24:11;;;;;;;;;;;12.40;69.90;;;;;;5003907;28;93828;-37
2023/03/25 00:26:41;;;;;;;;;;;12.40;69.90;;;;;;5005143;28;93131;-39
2023/03/25 00:29:07;;;;;;;;;;;12.40;69.90;;;;;;5013971;28;93844;-39
2023/03/25 00:31:33;;;;;;;;;;;12.40;69.90;;;;;;5013802;28;94346;-40
2023/03/25 00:33:58;;;;;;;;;;;12.40;69.90;;;;;;5001316;28;92867;-39
2023/03/25 00:36:24;;;;;;;;;;;12.40;69.90;;;;;;5006135;28;94030;-39
2023/03/25 00:38:50;;;;;;;;;;;12.30;70.00;;;;;;5018299;28;94708;-40
2023/03/25 00:41:16;;;;;;;;;;;12.30;69.90;;;;;;5007177;28;92206;-40
2023/03/25 00:43:43;;;;;;;;;;;12.40;70.00;;;;;;5009260;28;93606;-39
2023/03/25 00:46:09;;;;;;;;;;;12.30;70.00;;;;;;5005227;28;94485;-39
2023/03/25 00:48:35;;;;;;;;;;;12.30;70.00;;;;;;5008609;28;92435;-39
2023/03/25 00:51:06;;;;;;;;;;;12.30;70.60;;;;;;5015950;28;94739;-39
2023/03/25 00:53:32;;;;;;;;;;;12.30;70.00;;;;;;5016600;28;92099;-39
2023/03/25 00:55:57;;;;;;;;;;;12.30;70.00;;;;;;5002411;28;93406;-39
2023/03/25 00:58:23;;;;;;;;;;;12.30;70.00;;;;;;5004991;28;92965;-39
2023/03/25 01:00:48;;;;;;;;;;;12.30;70.00;;;;;;5015309;28;93685;-39
2023/03/25 01:03:14;;;;;;;;;;;12.30;70.00;;;;;;5017201;28;93435;-39
2023/03/25 01:05:40;;;;;;;;;;;12.30;70.00;;;;;;5015702;28;94185;-39
2023/03/25 01:08:06;;;;;;;;;;;12.20;70.00;;;;;;5020998;28;92206;-39
2023/03/25 01:10:33;;;;;;;;;;;12.30;70.10;;;;;;5007181;28;94154;-39
2023/03/25 01:12:59;;;;;;;;;;;12.20;70.00;;;;;;5001738;28;92293;-39
2023/03/25 01:15:24;;;;;;;;;;;12.20;70.10;;;;;;5018307;28;93806;-39
2023/03/25 01:17:50;;;;;;;;;;;12.20;70.10;;;;;;5017097;28;92741;-39
2023/03/25 01:20:15;;;;;;;;;;;12.20;70.60;;;;;;5015123;28;92419;-39
2023/03/25 01:22:41;;;;;;;;;;;12.20;70.00;;;;;;5016683;28;93822;-39
2023/03/25 01:25:07;;;;;;;;;;;12.20;70.10;;;;;;5013871;28;95417;-39
2023/03/25 01:27:32;;;;;;;;;;;12.20;70.10;;;;;;5005512;28;94548;-39
2023/03/25 01:29:58;;;;;;;;;;;12.20;70.10;;;;;;5004016;28;94559;-39
2023/03/25 01:32:23;;;;;;;;;;;12.20;70.10;;;;;;5001210;28;92285;-39
2023/03/25 01:34:49;;;;;;;;;;;12.20;70.10;;;;;;5001061;28;94049;-39
2023/03/25 01:37:14;;;;;;;;;;;12.20;70.10;;;;;;5001043;28;93054;-39
2023/03/25 01:39:40;;;;;;;;;;;12.20;70.10;;;;;;5001396;28;92822;-40
2023/03/25 01:42:05;;;;;;;;;;;12.10;70.10;;;;;;5001774;28;93804;-39
2023/03/25 01:44:31;;;;;;;;;;;12.10;70.10;;;;;;5011672;28;94592;-39
2023/03/25 01:47:00;;;;;;;;;;;12.10;70.10;;;;;;5016450;28;92558;-39
2023/03/25 01:49:28;;;;;;;;;;;12.10;70.10;;;;;;5016731;28;93905;-39
2023/03/25 01:52:01;;;;;;;;;;;12.10;70.10;;;;;;5016082;28;92258;-40
2023/03/25 01:54:27;;;;;;;;;;;12.10;70.20;;;;;;5001203;28;93814;-39
2023/03/25 01:56:52;;;;;;;;;;;12.10;70.10;;;;;;5000655;28;94338;-39
2023/03/25 01:59:19;;;;;;;;;;;12.10;70.10;;;;;;5001133;28;92221;-39
2023/03/25 02:01:45;;;;;;;;;;;12.10;70.20;;;;;;5012445;28;93879;-39
2023/03/25 02:04:12;;;;;;;;;;;12.10;70.20;;;;;;5004266;28;93241;-39
2023/03/25 02:06:43;;;;;;;;;;;12.10;70.10;;;;;;5015796;28;92098;-40
2023/03/25 02:09:10;;;;;;;;;;;12.10;70.20;;;;;;5014836;28;92826;-40
2023/03/25 02:11:36;;;;;;;;;;;12.10;70.10;;;;;;5003344;28;94293;-39
2023/03/25 02:14:04;;;;;;;;;;;12.00;70.10;;;;;;5000266;28;93968;-39
2023/03/25 02:16:33;;;;;;;;;;;12.00;70.20;;;;;;5000248;28;94699;-40
2023/03/25 02:19:17;;;;;;;;;;;12.00;70.20;;;;;;5012008;28;92559;-39
2023/03/25 02:21:45;;;;;;;;;;;12.00;70.30;;;;;;5003165;28;92438;-40
2023/03/25 02:24:34;;;;;;;;;;;12.00;70.20;;;;;;4999975;28;95019;-39
2023/03/25 02:27:25;;;;;;;;;;;12.00;70.20;;;;;;4999864;28;92481;-39
2023/03/25 02:29:54;;;;;;;;;;;12.00;70.30;;;;;;5000335;28;93458;-39
2023/03/25 02:32:22;;;;;;;;;;;12.00;70.20;;;;;;5015651;28;94570;-39
2023/03/25 02:34:58;;;;;;;;;;;11.90;70.20;;;;;;5003325;28;92187;-40
2023/03/25 02:37:40;;;;;;;;;;;11.90;70.20;;;;;;5014365;28;94679;-39
2023/03/25 02:40:08;;;;;;;;;;;11.90;70.30;;;;;;5017182;28;93082;-39
2023/03/25 02:42:39;;;;;;;;;;;11.90;70.20;;;;;;5017314;28;92775;-39
2023/03/25 02:45:06;;;;;;;;;;;11.90;70.10;;;;;;5015436;28;94730;-38
2023/03/25 02:47:38;;;;;;;;;;;11.90;70.80;;;;;;5015970;28;92932;-39
2023/03/25 02:50:08;;;;;;;;;;;11.90;70.20;;;;;;5015043;28;93871;-39
2023/03/25 02:52:36;;;;;;;;;;;11.90;70.20;;;;;;5004035;28;94353;-39
2023/03/25 02:55:09;;;;;;;;;;;11.90;70.10;;;;;;5004461;28;92264;-39
2023/03/25 02:57:37;;;;;;;;;;;11.90;70.20;;;;;;5003334;28;94006;-39
2023/03/25 03:00:09;;;;;;;;;;;11.90;70.10;;;;;;4999741;28;92137;-39
2023/03/25 03:02:35;;;;;;;;;;;11.80;70.10;;;;;;5005178;28;93904;-39
2023/03/25 03:05:00;;;;;;;;;;;11.80;70.00;;;;;;4998944;28;95945;-39
2023/03/25 03:07:28;;;;;;;;;;;11.80;70.10;;;;;;5010547;28;92270;-39
2023/03/25 03:10:01;;;;;;;;;;;11.80;70.10;;;;;;5018185;28;94097;-39
2023/03/25 03:12:41;;;;;;;;;;;11.80;70.10;;;;;;5002843;28;94652;-40
2023/03/25 03:15:18;;;;;;;;;;;11.80;70.00;;;;;;5014229;28;92932;-39
2023/03/25 03:17:49;;;;;;;;;;;11.80;70.00;;;;;;5010364;28;94037;-39
2023/03/25 03:20:18;;;;;;;;;;;11.80;70.10;;;;;;4999710;28;92120;-39
2023/03/25 03:22:51;;;;;;;;;;;11.80;70.10;;;;;;5005357;28;93814;-39
2023/03/25 03:25:20;;;;;;;;;;;11.80;70.10;;;;;;5004828;28;94427;-39
2023/03/25 03:27:55;;;;;;;;;;;11.80;70.00;;;;;;4998887;28;92243;-39
2023/03/25 03:30:23;;;;;;;;;;;11.80;70.10;;;;;;5012576;28;93110;-39
2023/03/25 03:32:59;;;;;;;;;;;11.70;70.00;;;;;;5003521;28;94710;-39
2023/03/25 03:35:28;;;;;;;;;;;11.70;70.00;;;;;;5013332;28;92039;-39
2023/03/25 03:37:59;;;;;;;;;;;11.70;70.00;;;;;;4999469;28;93895;-39
2023/03/25 03:40:26;;;;;;;;;;;11.70;70.00;;;;;;5019627;28;93053;-39
2023/03/25 03:42:55;;;;;;;;;;;11.70;69.90;;;;;;5016271;28;93798;-39
2023/03/25 03:45:28;;;;;;;;;;;11.70;70.00;;;;;;5005924;28;94309;-39
2023/03/25 03:47:54;;;;;;;;;;;11.70;70.10;;;;;;5009351;28;92069;-40
2023/03/25 03:50:23;;;;;;;;;;;11.60;69.90;;;;;;4999540;28;92620;-38
2023/03/25 03:52:51;;;;;;;;;;;11.60;70.00;;;;;;5011183;28;94228;-39
2023/03/25 03:55:21;;;;;;;;;;;11.60;70.10;;;;;;5004345;28;93981;-39
2023/03/25 03:58:00;;;;;;;;;;;11.60;70.20;;;;;;5014429;28;94682;-39
2023/03/25 04:00:31;;;;;;;;;;;11.60;70.10;;;;;;5012932;28;94471;-39
2023/03/25 04:03:13;;;;;;;;;;;11.60;70.00;;;;;;5016897;28;92878;-39
2023/03/25 04:05:41;;;;;;;;;;;11.60;70.10;;;;;;5003921;28;94557;-39
2023/03/25 04:08:11;;;;;;;;;;;11.60;70.10;;;;;;5000488;28;92245;-39
2023/03/25 04:10:39;;;;;;;;;;;11.50;70.10;;;;;;5017214;28;94177;-39
2023/03/25 04:13:08;;;;;;;;;;;11.60;70.00;;;;;;5017639;28;93241;-40
2023/03/25 04:15:33;;;;;;;;;;;11.60;70.10;;;;;;5018401;28;92740;-40
2023/03/25 04:18:00;;;;;;;;;;;11.50;70.10;;;;;;5015634;28;94099;-40
2023/03/25 04:20:28;;;;;;;;;;;11.50;69.90;;;;;;5001305;28;95481;-40
2023/03/25 04:22:54;;;;;;;;;;;11.50;70.10;;;;;;5002392;28;92224;-39
2023/03/25 04:25:20;;;;;;;;;;;11.50;70.00;;;;;;5004872;28;93398;-39
2023/03/25 04:27:47;;;;;;;;;;;11.50;70.00;;;;;;5001884;28;92093;-39
2023/03/25 04:30:16;;;;;;;;;;;11.50;70.10;;;;;;5017082;28;95560;-39
2023/03/25 04:32:45;;;;;;;;;;;11.50;70.10;;;;;;5015061;28;94391;-39
2023/03/25 04:35:10;;;;;;;;;;;11.40;70.00;;;;;;5019158;28;92823;-40
2023/03/25 04:37:37;;;;;;;;;;;11.40;69.90;;;;;;5018559;28;93779;-40
2023/03/25 04:40:05;;;;;;;;;;;11.40;69.90;;;;;;5017110;28;93027;-39
2023/03/25 04:42:31;;;;;;;;;;;11.50;69.90;;;;;;5016676;28;92633;-39
2023/03/25 04:44:57;;;;;;;;;;;11.40;70.00;;;;;;5017679;28;94031;-39
2023/03/25 04:47:23;;;;;;;;;;;11.40;70.00;;;;;;5020384;28;95654;-39
2023/03/25 04:49:49;;;;;;;;;;;11.40;70.00;;;;;;5002222;28;94064;-39
2023/03/25 04:52:15;;;;;;;;;;;11.40;70.00;;;;;;5008597;28;94415;-39
2023/03/25 04:54:41;;;;;;;;;;;11.40;70.00;;;;;;5009503;28;92277;-39
2023/03/25 04:57:09;;;;;;;;;;;11.30;69.90;;;;;;5001889;28;93500;-39
2023/03/25 04:59:35;;;;;;;;;;;11.40;69.90;;;;;;5015072;28;94069;-39
2023/03/25 05:02:01;;;;;;;;;;;11.40;70.00;;;;;;5012362;28;91391;-39
2023/03/25 05:04:27;;;;;;;;;;;11.30;70.00;;;;;;5007242;28;93731;-39
2023/03/25 05:06:55;;;;;;;;;;;11.40;69.90;;;;;;5001237;28;94852;-39
2023/03/25 05:09:21;;;;;;;;;;;11.30;69.90;;;;;;5003911;28;93802;-39
2023/03/25 05:11:47;;;;;;;;;;;11.30;69.90;;;;;;5001148;28;94698;-39
2023/03/25 05:14:14;;;;;;;;;;;11.30;70.00;;;;;;5001669;28;92195;-39
2023/03/25 05:16:40;;;;;;;;;;;11.30;69.80;;;;;;5001733;28;94138;-39
2023/03/25 05:19:09;;;;;;;;;;;11.30;69.90;;;;;;5015245;28;94069;-39
2023/03/25 05:21:36;;;;;;;;;;;11.30;70.00;;;;;;5012042;28;92268;-39
2023/03/25 05:24:07;;;;;;;;;;;11.30;69.90;;;;;;5001559;28;93776;-39
2023/03/25 05:26:36;;;;;;;;;;;11.30;70.00;;;;;;5001725;28;92587;-39
2023/03/25 05:29:03;;;;;;;;;;;11.30;70.00;;;;;;5016191;28;92275;-39
2023/03/25 05:31:29;;;;;;;;;;;11.20;69.90;;;;;;5000994;28;93596;-39
2023/03/25 05:33:55;;;;;;;;;;;11.20;70.00;;;;;;5014637;28;93834;-39
2023/03/25 05:36:23;;;;;;;;;;;11.20;70.00;;;;;;5015735;28;93653;-39
2023/03/25 05:38:49;;;;;;;;;;;11.30;70.00;;;;;;5017886;28;93970;-39
2023/03/25 05:41:17;;;;;;;;;;;11.20;69.90;;;;;;5017309;28;92232;-39
2023/03/25 05:43:46;;;;;;;;;;;11.20;69.90;;;;;;5016880;28;93505;-39
2023/03/25 05:46:15;;;;;;;;;;;11.20;69.90;;;;;;5012966;28;94497;-40
2023/03/25 05:48:41;;;;;;;;;;;11.20;70.00;;;;;;5016621;28;92036;-39
2023/03/25 05:51:16;;;;;;;;;;;11.20;69.90;;;;;;5004482;28;94196;-39
2023/03/25 05:53:43;;;;;;;;;;;11.20;69.90;;;;;;5018396;28;91974;-39
2023/03/25 05:56:09;;;;;;;;;;;11.20;70.00;;;;;;5016608;28;93824;-39
2023/03/25 05:58:35;;;;;;;;;;;11.20;69.90;;;;;;5011786;28;95595;-39
2023/03/25 06:01:01;;;;;;;;;;;11.20;69.90;;;;;;5017514;28;93258;-39
2023/03/25 06:03:27;;;;;;;;;;;11.20;69.90;;;;;;5017396;28;93906;-39
2023/03/25 06:05:53;;;;;;;;;;;11.20;70.00;;;;;;5000655;28;93320;-39
2023/03/25 06:08:24;;;;;;;;;;;11.20;70.00;;;;;;5000744;28;92076;-39
2023/03/25 06:10:59;;;;;;;;;;;11.20;70.10;;;;;;5000870;28;93846;-39
2023/03/25 06:13:25;;;;;;;;;;;11.20;70.00;;;;;;5015055;28;94517;-39
2023/03/25 06:15:56;;;;;;;;;;;11.10;70.00;;;;;;5001362;28;94483;-39
2023/03/25 06:18:24;;;;;;;;;;;11.10;70.00;;;;;;5006347;28;95166;-39
2023/03/25 06:20:56;;;;;;;;;;;11.20;70.00;;;;;;5017590;28;92748;-39
2023/03/25 06:23:22;;;;;;;;;;;11.20;70.00;;;;;;4999833;28;93234;-39
2023/03/25 06:25:49;;;;;;;;;;;11.20;70.10;;;;;;4999933;28;94509;-39
2023/03/25 06:28:17;;;;;;;;;;;11.20;70.00;;;;;;5004720;28;92230;-40
2023/03/25 06:30:46;;;;;;;;;;;11.20;70.10;;;;;;5017608;28;93765;-39
2023/03/25 06:33:12;;;;;;;;;;;11.20;70.10;;;;;;5009217;28;93263;-39
2023/03/25 06:35:42;;;;;;;;;;;11.20;70.10;;;;;;5017776;28;92284;-40
2023/03/25 06:38:08;;;;;;;;;;;11.20;70.10;;;;;;5016807;28;94662;-39
2023/03/25 06:40:36;;;;;;;;;;;11.20;70.20;;;;;;5019280;28;91448;-39
2023/03/25 06:43:03;;;;;;;;;;;11.10;70.10;;;;;;5000167;28;93598;-39
2023/03/25 06:45:28;;;;;;;;;;;11.10;70.10;;;;;;4999860;28;94973;-39
2023/03/25 06:47:54;;;;;;;;;;;11.10;70.20;;;;;;4999508;28;93915;-39
2023/03/25 06:50:19;;;;;;;;;;;11.10;70.20;;;;;;5015768;28;94711;-39
2023/03/25 06:52:45;;;;;;;;;;;11.10;70.20;;;;;;5015220;28;92987;-39
2023/03/25 06:55:11;;;;;;;;;;;11.20;70.30;;;;;;5000435;28;92310;-39
2023/03/25 06:57:36;;;;;;;;;;;11.10;70.30;;;;;;5002553;28;93826;-39
2023/03/25 07:00:04;;;;;;;;;;;11.20;70.20;;;;;;5000214;28;92134;-39
2023/03/25 07:02:30;;;;;;;;;;;11.20;70.30;;;;;;4999874;28;93738;-39
2023/03/25 07:04:55;;;;;;;;;;;11.20;70.20;;;;;;4999911;28;93651;-39
2023/03/25 07:07:21;;;;;;;;;;;11.20;70.10;;;;;;5007263;28;92154;-38
2023/03/25 07:09:51;;;;;;;;;;;11.20;70.10;;;;;;5011594;28;93738;-39
2023/03/25 07:12:16;;;;;;;;;;;11.20;70.00;;;;;;4998357;28;95116;-39
2023/03/25 07:14:43;;;;;;;;;;;11.20;70.10;;;;;;4999989;28;92119;-39
2023/03/25 07:17:08;;;;;;;;;;;11.20;70.10;;;;;;4999918;28;94011;-39
2023/03/25 07:19:34;;;;;;;;;;;11.20;70.10;;;;;;5002287;28;94624;-39
2023/03/25 07:21:59;;;;;;;;;;;11.20;70.20;;;;;;5009067;28;92919;-39
2023/03/25 07:24:25;;;;;;;;;;;11.20;70.40;;;;;;5007153;28;94569;-40
2023/03/25 07:26:50;;;;;;;;;;;11.20;70.30;;;;;;5015573;28;92889;-39
2023/03/25 07:29:16;;;;;;;;;;;11.20;70.40;;;;;;5017129;28;93012;-39
2023/03/25 07:31:41;;;;;;;;;;;11.20;70.40;;;;;;5013280;28;93885;-38
2023/03/25 07:34:07;;;;;;;;;;;11.20;70.50;;;;;;5012877;28;92608;-39
2023/03/25 07:36:33;;;;;;;;;;;11.20;70.50;;;;;;4998853;28;93789;-39
2023/03/25 07:38:58;;;;;;;;;;;11.20;70.60;;;;;;5001996;28;94396;-38
2023/03/25 07:41:24;;;;;;;;;;;11.20;70.60;;;;;;5013445;28;93854;-39
2023/03/25 07:43:49;;;;;;;;;;;11.20;70.60;;;;;;5014395;28;94480;-39
2023/03/25 07:46:15;;;;;;;;;;;11.20;70.60;;;;;;4999447;28;92683;-39
2023/03/25 07:48:40;;;;;;;;;;;11.20;70.70;;;;;;4999466;28;94473;-40
2023/03/25 07:51:07;;;;;;;;;;;11.20;70.70;;;;;;5014121;28;95744;-39
2023/03/25 07:53:33;;;;;;;;;;;11.30;70.70;;;;;;5012995;28;91429;-39
2023/03/25 07:55:58;;;;;;;;;;;11.20;70.70;;;;;;5009000;28;92878;-39
2023/03/25 07:58:24;;;;;;;;;;;11.30;70.80;;;;;;4998527;28;94522;-39
2023/03/25 08:00:49;;;;;;;;;;;11.30;70.70;;;;;;5001691;28;93075;-39
2023/03/25 08:03:15;;;;;;;;;;;11.30;70.80;;;;;;4998516;28;94667;-39
2023/03/25 08:05:47;;;;;;;;;;;11.30;70.80;;;;;;4999012;28;92187;-39
2023/03/25 08:08:13;;;;;;;;;;;11.30;70.90;;;;;;4998929;28;93865;-39
2023/03/25 08:10:41;;;;;;;;;;;11.30;70.90;;;;;;5007821;28;94347;-39
2023/03/25 08:13:07;;;;;;;;;;;11.30;71.00;;;;;;5014917;28;93105;-39
2023/03/25 08:15:32;;;;;;;;;;;11.30;71.00;;;;;;5017500;28;93936;-39
2023/03/25 08:17:58;;;;;;;;;;;11.30;71.00;;;;;;5014988;28;92414;-40
2023/03/25 08:20:23;;;;;;;;;;;11.30;71.10;;;;;;4998748;28;92275;-40
2023/03/25 08:22:50;;;;;;;;;;;11.30;71.20;;;;;;5001505;28;93945;-39
2023/03/25 08:25:15;;;;;;;;;;;11.30;71.20;;;;;;4998151;28;93074;-39
2023/03/25 08:27:41;;;;;;;;;;;11.30;71.20;;;;;;4998507;28;95066;-39
2023/03/25 08:30:09;;;;;;;;;;;11.30;71.10;;;;;;4998760;28;92879;-39
2023/03/25 08:32:37;;;;;;;;;;;11.30;71.10;;;;;;5013935;28;92237;-39
2023/03/25 08:35:05;;;;;;;;;;;11.30;71.00;;;;;;5003753;28;93659;-39
2023/03/25 08:37:36;;;;;;;;;;;11.40;71.10;;;;;;5006430;28;94347;-39
2023/03/25 08:40:07;;;;;;;;;;;11.30;71.10;;;;;;5016179;28;92160;-39
2023/03/25 08:42:33;;;;;;;;;;;11.40;71.10;;;;;;5013313;28;93966;-39
2023/03/25 08:44:58;;;;;;;;;;;11.40;71.10;;;;;;5000923;28;94618;-39
2023/03/25 08:47:24;;;;;;;;;;;11.40;71.10;;;;;;4998545;28;94199;-39
2023/03/25 08:49:50;;;;;;;;;;;11.40;71.10;;;;;;5002633;28;94442;-40
2023/03/25 08:52:16;;;;;;;;;;;11.40;71.10;;;;;;4998384;28;92255;-39
2023/03/25 08:54:41;;;;;;;;;;;11.40;71.10;;;;;;5000409;28;93683;-39
2023/03/25 08:57:07;;;;;;;;;;;11.50;71.00;;;;;;5013990;28;94551;-39
2023/03/25 08:59:33;;;;;;;;;;;11.40;70.90;;;;;;5017009;28;92573;-40
2023/03/25 09:01:58;;;;;;;;;;;11.40;71.00;;;;;;5005284;28;93845;-40
2023/03/25 09:04:24;;;;;;;;;;;11.50;70.90;;;;;;5016863;28;94721;-40
2023/03/25 09:06:49;;;;;;;;;;;11.50;70.80;;;;;;5005477;28;92117;-39
2023/03/25 09:09:15;;;;;;;;;;;11.50;70.80;;;;;;5003046;28;92995;-40
2023/03/25 09:11:41;;;;;;;;;;;11.50;70.90;;;;;;5015306;28;92209;-39
2023/03/25 09:14:06;;;;;;;;;;;11.50;70.90;;;;;;5017461;28;94266;-39
2023/03/25 09:16:33;;;;;;;;;;;11.50;70.90;;;;;;5009584;28;94391;-39
2023/03/25 09:18:59;;;;;;;;;;;11.50;71.00;;;;;;5014111;28;92583;-39
2023/03/25 09:21:24;;;;;;;;;;;11.50;71.00;;;;;;5007445;28;94296;-39
2023/03/25 09:23:50;;;;;;;;;;;11.60;71.00;;;;;;5000801;28;94352;-39
2023/03/25 09:26:15;;;;;;;;;;;11.60;70.90;;;;;;5001299;28;92211;-39
2023/03/25 09:28:41;;;;;;;;;;;11.60;70.90;;;;;;5003779;28;93887;-40
2023/03/25 09:31:08;;;;;;;;;;;11.60;70.90;;;;;;5001673;28;91413;-39
2023/03/25 09:33:34;;;;;;;;;;;11.60;70.90;;;;;;5001384;28;93214;-39
2023/03/25 09:36:01;;;;;;;;;;;11.60;70.80;;;;;;5000896;28;94432;-39
2023/03/25 09:38:26;;;;;;;;;;;11.60;70.90;;;;;;5000657;28;93101;-39
2023/03/25 09:40:52;;;;;;;;;;;11.70;70.80;;;;;;5001552;28;94740;-39
2023/03/25 09:43:17;;;;;;;;;;;11.70;70.80;;;;;;5017530;28;94534;-39
2023/03/25 09:45:47;;;;;;;;;;;11.70;70.80;;;;;;5017119;28;92364;-39
2023/03/25 09:48:13;;;;;;;;;;;11.70;70.80;;;;;;5018834;28;94009;-39
2023/03/25 09:50:40;;;;;;;;;;;11.70;70.80;;;;;;5017100;28;92542;-38
2023/03/25 09:53:11;;;;;;;;;;;11.80;70.70;;;;;;5009143;28;93786;-40
2023/03/25 09:55:40;;;;;;;;;;;11.80;70.80;;;;;;5001207;28;92777;-39
2023/03/25 09:58:29;;;;;;;;;;;11.80;70.80;;;;;;5001067;28;92178;-39
2023/03/25 10:00:59;;;;;;;;;;;11.80;70.70;;;;;;4995875;28;93732;-39
2023/03/25 10:03:28;;;;;;;;;;;11.90;70.80;;;;;;5014029;28;95124;-39
2023/03/25 10:05:57;;;;;;;;;;;11.80;70.80;;;;;;5003928;28;92881;-40
2023/03/25 10:08:37;;;;;;;;;;;11.90;70.70;;;;;;5000935;28;93002;-39
2023/03/25 10:11:21;;;;;;;;;;;11.90;70.50;;;;;;5019831;28;93176;-40
2023/03/25 10:14:02;;;;;;;;;;;11.90;70.50;;;;;;5016923;28;93815;-39
2023/03/25 10:16:46;;;;;;;;;;;11.90;70.50;;;;;;5014117;28;94773;-39
2023/03/25 10:19:26;;;;;;;;;;;12.00;70.60;;;;;;5017228;28;92374;-40
2023/03/25 10:21:56;;;;;;;;;;;12.00;70.40;;;;;;5007250;28;94148;-40
2023/03/25 10:24:23;;;;;;;;;;;12.00;70.50;;;;;;5004139;28;94492;-39
2023/03/25 10:26:53;;;;;;;;;;;12.10;70.40;;;;;;5010197;28;93071;-40
2023/03/25 10:29:21;;;;;;;;;;;12.10;70.50;;;;;;5003742;28;93806;-40
2023/03/25 10:31:55;;;;;;;;;;;12.10;70.40;;;;;;5017141;28;94768;-39
2023/03/25 10:34:24;;;;;;;;;;;12.10;70.40;;;;;;5017929;28;92335;-39
2023/03/25 10:36:56;;;;;;;;;;;12.20;70.40;;;;;;5015986;28;96067;-40
2023/03/25 10:39:23;;;;;;;;;;;12.20;70.50;;;;;;5016195;28;92132;-39
2023/03/25 10:41:56;;;;;;;;;;;12.20;70.60;;;;;;5015021;28;92498;-39
2023/03/25 10:44:23;;;;;;;;;;;12.20;70.50;;;;;;5014302;28;95006;-39
2023/03/25 10:46:51;;;;;;;;;;;12.30;70.50;;;;;;5015589;28;91482;-39
2023/03/25 10:49:19;;;;;;;;;;;12.30;70.50;;;;;;5000237;28;92162;-39
2023/03/25 10:51:45;;;;;;;;;;;12.30;70.40;;;;;;5010235;28;94378;-39
2023/03/25 10:54:12;;;;;;;;;;;12.30;70.40;;;;;;5015504;28;94028;-39
2023/03/25 10:56:48;;;;;;;;;;;12.40;70.60;;;;;;5016583;28;94720;-39
2023/03/25 10:59:21;;;;;;;;;;;12.40;70.60;;;;;;5011526;28;92718;-40
2023/03/25 11:01:47;;;;;;;;;;;12.40;70.60;;;;;;5000130;28;93020;-39
2023/03/25 11:04:14;;;;;;;;;;;12.40;70.60;;;;;;4999530;28;94559;-39
2023/03/25 11:06:41;;;;;;;;;;;12.50;70.60;;;;;;5000002;28;92337;-39
2023/03/25 11:09:11;;;;;;;;;;;12.50;70.70;;;;;;4999911;28;94090;-39
2023/03/25 11:11:36;;;;;;;;;;;12.50;70.60;;;;;;5000066;28;94075;-39
2023/03/25 11:14:02;;;;;;;;;;;12.50;70.60;;;;;;4999769;28;92101;-39
2023/03/25 11:16:38;;;;;;;;;;;12.50;70.70;;;;;;4999850;28;93902;-39
2023/03/25 11:19:04;;;;;;;;;;;12.60;70.70;;;;;;5010091;28;95828;-39
2023/03/25 11:21:34;;;;;;;;;;;12.60;70.80;;;;;;4999794;28;95180;-39
2023/03/25 11:24:00;;;;;;;;;;;12.60;70.70;;;;;;4999354;28;94589;-39
2023/03/25 11:26:34;;;;;;;;;;;12.70;70.70;;;;;;4999667;28;92232;-39
2023/03/25 11:29:03;;;;;;;;;;;12.70;70.60;;;;;;5012395;28;93463;-39
2023/03/25 11:31:32;;;;;;;;;;;12.70;70.50;;;;;;5015467;28;94507;-40
2023/03/25 11:34:07;;;;;;;;;;;12.70;70.60;;;;;;5014518;28;92213;-39
2023/03/25 11:36:38;;;;;;;;;;;12.70;70.70;;;;;;5015355;28;93763;-40
2023/03/25 11:39:23;;;;;;;;;;;12.80;71.40;;;;;;5008043;28;94927;-39
2023/03/25 11:41:50;;;;;;;;;;;12.80;70.60;;;;;;5016569;28;92431;-39
2023/03/25 11:44:26;;;;;;;;;;;12.80;70.50;;;;;;4998271;28;95139;-39
2023/03/25 11:46:54;;;;;;;;;;;12.80;70.50;;;;;;4999390;28;92337;-39
2023/03/25 11:49:21;;;;;;;;;;;12.90;70.60;;;;;;4999323;28;92846;-40
2023/03/25 11:51:48;;;;;;;;;;;12.90;70.60;;;;;;4998730;28;94421;-39
2023/03/25 11:54:14;;;;;;;;;;;12.90;70.60;;;;;;4999260;28;92275;-39
2023/03/25 11:56:41;;;;;;;;;;;12.90;70.50;;;;;;5000237;28;94860;-39
2023/03/25 11:59:09;;;;;;;;;;;12.90;70.60;;;;;;4999040;28;93031;-40
2023/03/25 12:01:40;;;;;;;;;;;13.00;70.50;;;;;;5007471;28;91507;-39
2023/03/25 12:04:15;;;;;;;;;;;13.00;70.50;;;;;;5011823;28;94569;-40
2023/03/25 12:06:59;;;;;;;;;;;13.00;70.40;;;;;;5017276;28;92103;-40
2023/03/25 12:09:25;;;;;;;;;;;13.00;70.30;;;;;;5012792;28;93096;-39
2023/03/25 12:11:54;;;;;;;;;;;13.00;70.40;;;;;;5015591;28;93762;-40
2023/03/25 12:14:31;;;;;;;;;;;13.10;70.40;;;;;;5008727;28;92208;-39
2023/03/25 12:17:04;;;;;;;;;;;13.10;70.40;;;;;;5014654;28;94356;-40
2023/03/25 12:19:29;;;;;;;;;;;13.10;70.40;;;;;;5007022;28;94402;-40
2023/03/25 12:22:01;;;;;;;;;;;13.20;70.60;;;;;;4998688;28;92191;-40
2023/03/25 12:24:38;;;;;;;;;;;13.20;70.50;;;;;;5017424;28;93851;-39
2023/03/25 12:27:04;;;;;;;;;;;13.20;70.40;;;;;;5012162;28;91444;-39
2023/03/25 12:29:30;;;;;;;;;;;13.20;70.40;;;;;;5010043;28;93688;-40
2023/03/25 12:31:59;;;;;;;;;;;13.20;70.30;;;;;;5016995;28;94757;-39
2023/03/25 12:34:36;;;;;;;;;;;13.20;70.40;;;;;;5016781;28;93052;-40
2023/03/25 12:37:04;;;;;;;;;;;13.30;70.50;;;;;;5002297;28;94944;-40
2023/03/25 12:39:30;;;;;;;;;;;13.30;70.40;;;;;;5001717;28;94210;-40
2023/03/25 12:42:15;;;;;;;;;;;13.30;70.50;;;;;;5014381;28;92264;-39
2023/03/25 12:44:41;;;;;;;;;;;13.30;70.50;;;;;;5017511;28;93629;-40
2023/03/25 12:47:18;;;;;;;;;;;13.30;70.40;;;;;;5012448;28;94515;-39
2023/03/25 12:49:53;;;;;;;;;;;13.30;70.60;;;;;;5002410;28;92387;-39
2023/03/25 12:52:21;;;;;;;;;;;13.40;70.40;;;;;;5001798;28;93952;-40
2023/03/25 12:54:50;;;;;;;;;;;13.40;70.50;;;;;;5017133;28;92170;-40
2023/03/25 12:57:21;;;;;;;;;;;13.40;70.50;;;;;;5017747;28;94000;-39
2023/03/25 13:00:06;;;;;;;;;;;13.40;70.50;;;;;;5000920;28;95941;-39
2023/03/25 13:02:51;;;;;;;;;;;13.40;70.40;;;;;;5018239;28;92207;-40
2023/03/25 13:05:49;;;;;;;;;;;13.50;70.40;;;;;;5017106;28;93774;-39
2023/03/25 13:08:20;;;;;;;;;;;13.50;70.40;;;;;;4992107;28;94111;-39
2023/03/25 13:10:47;;;;;;;;;;;13.50;70.50;;;;;;5004743;28;92212;-40
2023/03/25 13:13:15;;;;;;;;;;;13.50;70.40;;;;;;5000773;28;94560;-39
2023/03/25 13:15:42;;;;;;;;;;;13.50;70.40;;;;;;5003049;28;92148;-39
2023/03/25 13:18:20;;;;;;;;;;;13.50;70.30;;;;;;5017400;28;94406;-41
2023/03/25 13:20:54;;;;;;;;;;;13.50;70.30;;;;;;5016066;28;94315;-40
2023/03/25 13:23:22;;;;;;;;;;;13.50;70.30;;;;;;5016984;28;92079;-40
2023/03/25 13:25:55;;;;;;;;;;;13.60;70.30;;;;;;5012356;28;93885;-39
2023/03/25 13:28:38;;;;;;;;;;;13.60;70.40;;;;;;5000653;28;94724;-40
2023/03/25 13:31:07;;;;;;;;;;;13.60;70.40;;;;;;5016195;28;92334;-39
2023/03/25 13:33:35;;;;;;;;;;;13.60;70.30;;;;;;5015407;28;93708;-39
2023/03/25 13:36:13;;;;;;;;;;;13.60;70.30;;;;;;5013846;28;93032;-37
2023/03/25 13:39:08;;;;;;;;;;;13.70;70.30;;;;;;5001475;28;93300;-37
2023/03/25 13:41:37;;;;;;;;;;;13.70;70.30;;;;;;5004759;28;94574;-37
2023/03/25 13:44:06;;;;;;;;;;;13.70;70.30;;;;;;5002195;28;91870;-37
2023/03/25 13:46:56;;;;;;;;;;;13.70;70.40;;;;;;5001516;28;93040;-37
2023/03/25 13:49:24;;;;;;;;;;;13.70;70.30;;;;;;5003287;28;94673;-37
2023/03/25 13:51:50;;;;;;;;;;;13.70;70.40;;;;;;5007479;28;93067;-37
2023/03/25 13:54:15;;;;;;;;;;;13.80;70.60;;;;;;5005190;28;93318;-40
2023/03/25 13:56:59;;;;;;;;;;;13.80;69.80;;;;;;5014993;28;92205;-40
2023/03/25 13:59:45;;;;;;;;;;;13.90;70.50;;;;;;5016439;28;93472;-38
2023/03/25 14:02:30;;;;;;;;;;;13.90;71.40;;;;;;5016502;28;93102;-39
2023/03/25 14:05:04;;;;;;;;;;;14.00;71.50;;;;;;5016164;28;92225;-42
2023/03/25 14:07:41;;;;;;;;;;;14.00;70.80;;;;;;5016328;28;92465;-41
2023/03/25 14:10:22;;;;;;;;;;;14.10;71.10;;;;;;5016848;28;92301;-39
2023/03/25 14:12:55;;;;;;;;;;;14.10;70.40;;;;;;5016559;28;92915;-41
2023/03/25 14:15:23;;;;;;;;;;;14.20;70.80;;;;;;5015464;28;92538;-39
2023/03/25 14:17:51;;;;;;;;;;;14.20;70.40;;;;;;5019648;28;94143;-46
2023/03/25 14:20:23;;;;;;;;;;;14.10;70.30;;;;;;5015143;28;92621;-39
2023/03/25 14:29:31;;;;;;;;;;;14.20;70.80;;;;;;5049028;27;80825;-40
2023/03/25 14:32:04;;;;;;;;;;;14.20;71.30;;;;;;5043725;28;80050;-41
2023/03/25 14:34:30;;;;;;;;;;;14.20;71.80;;;;;;5043052;28;81180;-42